createdAt,value
2019-04-21T00:01:08.605Z,90.30
2019-04-21T00:03:41.002Z,90.90
2019-04-21T00:06:23.092Z,91.60
2019-04-21T00:09:04.545Z,91.90
2019-04-21T00:11:33.009Z,92.10
2019-04-21T00:13:52.613Z,92.90
2019-04-21T00:16:16.067Z,92.40
2019-04-21T00:19:10.932Z,92.00
2019-04-21T00:21:40.469Z,91.80
2019-04-21T00:24:24.001Z,91.90
2019-04-21T00:27:11.935Z,92.00
2019-04-21T00:29:38.635Z,92.00
2019-04-21T00:32:03.117Z,91.90
2019-04-21T00:34:17.656Z,92.10
2019-04-21T00:37:00.112Z,92.20
2019-04-21T00:39:48.998Z,92.30
2019-04-21T00:42:12.896Z,92.20
2019-04-21T00:44:35.537Z,92.20
2019-04-21T00:47:08.420Z,91.70
2019-04-21T00:49:42.770Z,91.80
2019-04-21T00:55:27.634Z,92.30
2019-04-21T00:57:54.766Z,92.50
2019-04-21T01:00:18.640Z,92.50
2019-04-21T01:02:49.979Z,92.70
2019-04-21T01:05:21.194Z,92.90
2019-04-21T01:07:46.521Z,93.10
2019-04-21T01:10:15.016Z,93.10
2019-04-21T01:12:56.233Z,93.30
2019-04-21T01:15:30.599Z,93.10
2019-04-21T01:17:56.061Z,93.80
2019-04-21T01:20:16.975Z,93.60
2019-04-21T01:22:37.942Z,93.90
2019-04-21T01:25:20.274Z,94.10
2019-04-21T01:27:53.824Z,94.30
2019-04-21T01:30:34.648Z,94.20
2019-04-21T01:33:07.691Z,94.50
2019-04-21T01:35:32.928Z,94.50
2019-04-21T01:38:06.847Z,94.70
2019-04-21T01:40:42.227Z,94.60
2019-04-21T01:43:07.747Z,95.10
2019-04-21T01:45:45.902Z,95.00
2019-04-21T01:48:12.889Z,95.20
2019-04-21T01:50:41.136Z,95.10
2019-04-21T01:53:34.841Z,95.00
2019-04-21T01:56:16.899Z,95.00
2019-04-21T01:58:42.936Z,95.40
2019-04-21T02:01:27.471Z,95.70
2019-04-21T02:03:55.928Z,95.90
2019-04-21T02:06:27.477Z,96.10
2019-04-21T02:08:57.709Z,96.00
2019-04-21T02:11:31.240Z,96.00
2019-04-21T02:14:06.012Z,96.20
2019-04-21T02:16:28.210Z,96.50
2019-04-21T02:18:59.135Z,96.50
2019-04-21T02:21:27.308Z,96.30
2019-04-21T02:26:41.594Z,96.80
2019-04-21T02:29:08.638Z,96.80
2019-04-21T02:31:48.838Z,96.50
2019-04-21T02:34:13.486Z,96.60
2019-04-21T02:37:05.321Z,96.40
2019-04-21T02:39:18.045Z,96.50
2019-04-21T02:41:55.858Z,96.50
2019-04-21T02:44:35.974Z,96.80
2019-04-21T02:46:50.492Z,96.80
2019-04-21T02:49:38.176Z,96.80
2019-04-21T02:52:01.604Z,96.90
2019-04-21T02:54:50.864Z,96.80
2019-04-21T02:59:33.981Z,96.90
2019-04-21T03:02:25.768Z,96.90
2019-04-21T03:04:43.081Z,97.00
2019-04-21T03:14:55.606Z,97.40
2019-04-21T03:17:26.571Z,97.40
2019-04-21T03:19:50.002Z,97.40
2019-04-21T03:22:25.052Z,97.60
2019-04-21T03:35:34.423Z,98.00
2019-04-21T03:37:30.714Z,98.10
2019-04-21T03:40:03.327Z,98.10
2019-04-21T03:42:45.044Z,98.00
2019-04-21T03:45:03.700Z,98.00
2019-04-21T03:52:47.783Z,99.40
2019-04-21T04:03:42.168Z,99.70
2019-04-21T04:06:03.525Z,99.40
2019-04-21T04:08:50.172Z,99.50
2019-04-21T04:11:23.095Z,99.20
2019-04-21T04:16:12.001Z,99.20
2019-04-21T04:26:16.929Z,98.90
2019-04-21T04:28:58.066Z,98.70
2019-04-21T04:31:28.128Z,98.60
2019-04-21T04:33:57.769Z,98.60
2019-04-21T04:39:23.179Z,98.90
2019-04-21T04:44:43.782Z,99.00
2019-04-21T04:47:07.327Z,99.00
2019-04-21T04:49:40.154Z,99.20
2019-04-21T04:57:08.226Z,98.80
2019-04-21T05:02:10.990Z,98.70
2019-04-21T05:04:58.639Z,98.90
2019-04-21T05:07:07.206Z,99.00
2019-04-21T05:09:47.067Z,99.00
2019-04-21T05:12:00.179Z,98.80
2019-04-21T05:14:39.716Z,98.90
2019-04-21T05:17:17.539Z,99.00
2019-04-21T05:22:20.097Z,98.90
2019-04-21T05:24:33.745Z,98.80
2019-04-21T05:27:05.012Z,98.80
2019-04-21T05:29:37.828Z,98.70
2019-04-21T05:32:26.463Z,98.60
2019-04-21T05:34:56.526Z,98.40
2019-04-21T05:37:44.809Z,98.10
2019-04-21T05:40:15.831Z,98.10
2019-04-21T05:42:51.037Z,98.20
2019-04-21T05:45:26.934Z,97.90
2019-04-21T05:48:03.057Z,98.00
2019-04-21T05:50:30.492Z,98.10
2019-04-21T05:52:53.545Z,97.90
2019-04-21T05:55:42.686Z,97.70
2019-04-21T05:58:02.730Z,97.60
2019-04-21T06:01:06.071Z,97.20
2019-04-21T06:03:09.879Z,97.00
2019-04-21T06:06:00.302Z,97.10
2019-04-21T06:08:15.782Z,97.10
2019-04-21T06:10:48.822Z,96.60
2019-04-21T06:13:22.110Z,96.30
2019-04-21T06:16:03.929Z,96.30
2019-04-21T06:18:27.255Z,96.20
2019-04-21T06:20:54.988Z,95.80
2019-04-21T06:23:25.409Z,95.00
2019-04-21T06:28:28.414Z,93.70
2019-04-21T06:31:05.680Z,92.90
2019-04-21T06:33:32.301Z,92.40
2019-04-21T06:41:27.664Z,91.30
2019-04-21T06:43:56.351Z,90.60
2019-04-21T06:46:33.583Z,90.20
2019-04-21T06:51:27.220Z,89.80
2019-04-21T06:54:03.445Z,90.50
2019-04-21T06:56:30.898Z,89.30
2019-04-21T06:58:59.262Z,84.70
2019-04-21T07:01:33.242Z,85.80
2019-04-21T07:06:40.250Z,84.40
2019-04-21T07:09:22.424Z,78.30
2019-04-21T07:11:30.566Z,74.60
2019-04-21T07:14:24.357Z,83.30
2019-04-21T07:16:38.642Z,81.20
2019-04-21T07:19:12.919Z,81.70
2019-04-21T07:21:42.694Z,83.00
2019-04-21T07:24:14.188Z,80.80
2019-04-21T07:26:44.534Z,80.80
2019-04-21T07:29:14.214Z,81.90
2019-04-21T07:31:55.637Z,78.90
2019-04-21T07:34:22.660Z,79.20
2019-04-21T07:36:59.669Z,77.30
2019-04-21T07:39:10.683Z,76.60
2019-04-21T07:41:47.004Z,76.30
2019-04-21T07:44:16.073Z,76.30
2019-04-21T07:46:41.644Z,77.30
2019-04-21T07:49:40.059Z,77.90
2019-04-21T07:52:18.751Z,77.50
2019-04-21T07:54:57.446Z,78.00
2019-04-21T07:57:15.935Z,78.80
2019-04-21T08:00:13.250Z,76.00
2019-04-21T08:02:23.325Z,72.40
2019-04-21T08:07:32.340Z,68.30
2019-04-21T08:09:51.500Z,65.60
2019-04-21T08:12:20.232Z,56.40
2019-04-21T08:15:05.881Z,53.40
2019-04-21T08:17:24.629Z,56.70
2019-04-21T08:19:53.700Z,52.00
2019-04-21T08:22:35.025Z,52.00
2019-04-21T08:25:02.979Z,50.80
2019-04-21T08:27:39.171Z,47.80
2019-04-21T08:30:05.098Z,48.70
2019-04-21T08:32:44.450Z,49.00
2019-04-21T08:35:20.768Z,46.60
2019-04-21T08:37:36.973Z,48.20
2019-04-21T08:40:12.363Z,46.90
2019-04-21T08:42:38.710Z,48.80
2019-04-21T08:45:20.364Z,49.60
2019-04-21T08:47:47.747Z,46.60
2019-04-21T08:50:15.277Z,44.70
2019-04-21T08:52:49.037Z,43.20
2019-04-21T08:55:27.428Z,39.80
2019-04-21T08:58:22.091Z,40.00
2019-04-21T09:00:51.401Z,41.50
2019-04-21T09:03:21.316Z,42.20
2019-04-21T09:05:53.994Z,44.10
2019-04-21T09:08:24.838Z,41.00
2019-04-21T09:10:55.858Z,40.00
2019-04-21T09:13:24.817Z,41.10
2019-04-21T09:15:54.357Z,39.70
2019-04-21T09:18:22.955Z,37.80
2019-04-21T09:20:57.085Z,38.70
2019-04-21T09:23:28.800Z,38.40
2019-04-21T09:25:57.599Z,36.80
2019-04-21T09:28:25.535Z,36.20
2019-04-21T09:30:50.829Z,35.00
2019-04-21T09:33:16.643Z,33.20
2019-04-21T09:35:49.166Z,35.70
2019-04-21T09:38:27.649Z,34.80
2019-04-21T09:40:51.361Z,34.70
2019-04-21T09:43:32.913Z,35.70
2019-04-21T09:45:54.225Z,36.60
2019-04-21T09:48:26.302Z,33.90
2019-04-21T09:50:55.770Z,35.10
2019-04-21T09:53:33.019Z,31.60
2019-04-21T09:56:01.047Z,30.40
2019-04-21T09:58:34.770Z,33.20
2019-04-21T10:01:10.794Z,31.10
2019-04-21T10:03:39.617Z,30.50
2019-04-21T10:06:02.031Z,30.00
2019-04-21T10:08:31.827Z,29.70
2019-04-21T10:11:01.261Z,30.20
2019-04-21T10:13:31.744Z,29.70
2019-04-21T10:16:11.703Z,29.10
2019-04-21T10:18:41.460Z,30.30
2019-04-21T10:21:10.783Z,28.70
2019-04-21T10:23:41.504Z,29.80
2019-04-21T10:26:12.680Z,28.30
2019-04-21T10:28:43.323Z,27.60
2019-04-21T10:31:12.770Z,27.80
2019-04-21T10:33:42.184Z,28.40
2019-04-21T10:36:13.009Z,27.80
2019-04-21T10:38:46.403Z,28.00
2019-04-21T10:41:15.032Z,28.70
2019-04-21T10:43:45.254Z,27.90
2019-04-21T10:46:17.001Z,27.80
2019-04-21T10:48:47.459Z,28.10
2019-04-21T10:51:18.980Z,27.00
2019-04-21T10:53:52.386Z,26.10
2019-04-21T10:56:28.729Z,26.50
2019-04-21T10:58:52.275Z,26.60
2019-04-21T11:01:25.113Z,27.40
2019-04-21T11:03:56.696Z,26.70
2019-04-21T11:06:26.534Z,27.20
2019-04-21T11:08:58.979Z,26.90
2019-04-21T11:11:27.959Z,27.20
2019-04-21T11:13:58.749Z,26.50
2019-04-21T11:16:29.041Z,27.70
2019-04-21T11:19:00.050Z,26.60
2019-04-21T11:21:29.469Z,27.30
2019-04-21T11:23:59.869Z,28.50
2019-04-21T11:26:29.852Z,26.70
2019-04-21T11:28:59.392Z,26.10
2019-04-21T11:31:29.270Z,27.40
2019-04-21T11:33:58.631Z,28.10
2019-04-21T11:36:29.204Z,26.70
2019-04-21T11:39:16.357Z,27.00
2019-04-21T11:41:35.972Z,26.10
2019-04-21T11:44:05.443Z,27.40
2019-04-21T11:46:36.309Z,25.20
2019-04-21T11:49:06.302Z,26.00
2019-04-21T11:51:37.327Z,26.00
2019-04-21T11:54:08.772Z,24.70
2019-04-21T11:56:38.907Z,27.30
2019-04-21T11:59:08.441Z,25.20
2019-04-21T12:01:37.768Z,24.60
2019-04-21T12:04:07.612Z,24.50
2019-04-21T12:06:41.761Z,25.10
2019-04-21T12:09:09.615Z,26.10
2019-04-21T12:11:41.130Z,27.80
2019-04-21T12:14:12.030Z,25.70
2019-04-21T12:16:43.279Z,23.40
2019-04-21T12:19:12.721Z,24.40
2019-04-21T12:21:54.594Z,24.60
2019-04-21T12:24:13.306Z,26.00
2019-04-21T12:26:44.492Z,25.40
2019-04-21T12:29:14.587Z,26.10
2019-04-21T12:31:54.343Z,25.30
2019-04-21T12:34:23.829Z,26.40
2019-04-21T12:36:53.176Z,26.30
2019-04-21T12:39:24.968Z,25.40
2019-04-21T12:41:54.480Z,25.50
2019-04-21T12:44:24.633Z,25.70
2019-04-21T12:46:56.040Z,25.30
2019-04-21T12:49:25.674Z,24.70
2019-04-21T12:51:56.028Z,24.60
2019-04-21T12:54:25.914Z,27.80
2019-04-21T12:56:56.431Z,26.40
2019-04-21T12:59:29.211Z,25.70
2019-04-21T13:01:59.083Z,25.50
2019-04-21T13:04:29.388Z,25.20
2019-04-21T13:06:59.460Z,25.10
2019-04-21T13:09:31.729Z,26.20
2019-04-21T13:12:01.339Z,25.20
2019-04-21T13:14:31.643Z,24.80
2019-04-21T13:17:01.431Z,24.20
2019-04-21T13:19:31.517Z,24.80
2019-04-21T13:22:01.604Z,28.10
2019-04-21T13:24:31.819Z,24.40
2019-04-21T13:27:03.255Z,23.60
2019-04-21T13:29:32.420Z,24.70
2019-04-21T13:32:04.757Z,25.00
2019-04-21T13:34:33.812Z,24.30
2019-04-21T13:37:03.572Z,23.90
2019-04-21T13:40:02.199Z,24.40
2019-04-21T13:42:23.976Z,23.60
2019-04-21T13:44:44.690Z,23.50
2019-04-21T13:47:16.675Z,23.40
2019-04-21T13:49:47.522Z,23.80
2019-04-21T13:52:18.520Z,23.60
2019-04-21T13:54:49.544Z,21.30
2019-04-21T13:57:20.781Z,22.00
2019-04-21T13:59:51.343Z,21.10
2019-04-21T14:02:20.837Z,20.70
2019-04-21T14:04:51.798Z,21.90
2019-04-21T14:07:21.259Z,21.60
2019-04-21T14:09:57.947Z,21.70
2019-04-21T14:12:21.607Z,21.60
2019-04-21T14:14:52.379Z,20.90
2019-04-21T14:17:22.474Z,21.20
2019-04-21T14:19:53.147Z,20.00
2019-04-21T14:22:24.238Z,20.50
2019-04-21T14:24:54.125Z,20.30
2019-04-21T14:27:25.887Z,20.80
2019-04-21T14:29:55.596Z,20.80
2019-04-21T14:32:26.425Z,20.80
2019-04-21T14:34:58.700Z,21.10
2019-04-21T14:37:28.759Z,21.10
2019-04-21T14:40:06.601Z,20.30
2019-04-21T14:42:29.830Z,20.20
2019-04-21T14:45:00.773Z,20.20
2019-04-21T14:47:48.268Z,20.10
2019-04-21T14:50:38.298Z,19.70
2019-04-21T14:53:18.187Z,20.10
2019-04-21T14:55:49.041Z,20.00
2019-04-21T14:58:19.137Z,21.90
2019-04-21T15:00:55.714Z,20.40
2019-04-21T15:03:25.819Z,19.70
2019-04-21T15:05:56.007Z,20.30
2019-04-21T15:08:25.404Z,20.50
2019-04-21T15:10:54.940Z,20.90
2019-04-21T15:13:25.840Z,20.20
2019-04-21T15:15:56.266Z,19.30
2019-04-21T15:18:26.415Z,19.90
2019-04-21T15:20:57.249Z,20.00
2019-04-21T15:23:28.666Z,20.20
2019-04-21T15:25:59.911Z,20.80
2019-04-21T15:28:32.098Z,20.20
2019-04-21T15:31:00.741Z,21.00
2019-04-21T15:33:30.649Z,20.90
2019-04-21T15:36:00.775Z,21.50
2019-04-21T15:38:31.891Z,20.90
2019-04-21T15:41:06.685Z,20.40
2019-04-21T15:43:34.061Z,20.10
2019-04-21T15:46:04.570Z,20.90
2019-04-21T15:48:34.976Z,20.50
2019-04-21T15:51:05.589Z,21.10
2019-04-21T15:53:39.676Z,21.70
2019-04-21T15:56:15.202Z,22.70
2019-04-21T15:59:01.512Z,24.10
2019-04-21T16:01:36.585Z,25.60
2019-04-21T16:04:06.584Z,26.70
2019-04-21T16:06:37.450Z,26.40
2019-04-21T16:09:08.580Z,27.60
2019-04-21T16:11:39.861Z,28.20
2019-04-21T16:14:10.171Z,29.50
2019-04-21T16:16:41.032Z,29.50
2019-04-21T16:19:12.338Z,29.90
2019-04-21T16:21:46.326Z,31.20
2019-04-21T16:24:16.197Z,31.70
2019-04-21T16:26:46.912Z,29.70
2019-04-21T16:29:17.391Z,31.00
2019-04-21T16:31:47.077Z,31.80
2019-04-21T16:34:17.782Z,32.40
2019-04-21T16:36:47.670Z,33.50
2019-04-21T16:39:17.710Z,33.60
2019-04-21T16:41:47.159Z,32.80
2019-04-21T16:44:16.842Z,33.30
2019-04-21T16:46:47.513Z,33.80
2019-04-21T16:49:17.998Z,34.20
2019-04-21T16:51:49.990Z,33.70
2019-04-21T16:54:21.995Z,33.90
2019-04-21T16:56:55.835Z,34.20
2019-04-21T16:59:28.719Z,34.40
2019-04-21T17:01:58.708Z,34.90
2019-04-21T17:04:28.754Z,34.20
2019-04-21T17:06:58.950Z,35.40
2019-04-21T17:09:28.601Z,35.30
2019-04-21T17:12:02.309Z,35.40
2019-04-21T17:14:46.200Z,36.10
2019-04-21T17:17:26.767Z,36.20
2019-04-21T17:19:39.827Z,36.80
2019-04-21T17:22:04.009Z,37.60
2019-04-21T17:24:34.747Z,37.50
2019-04-21T17:27:05.070Z,38.00
2019-04-21T17:29:34.646Z,39.30
2019-04-21T17:32:07.431Z,40.30
2019-04-21T17:34:36.246Z,39.80
2019-04-21T17:37:06.364Z,40.10
2019-04-21T17:39:36.638Z,40.10
2019-04-21T17:42:18.673Z,40.70
2019-04-21T17:44:37.573Z,40.60
2019-04-21T17:47:21.234Z,41.00
2019-04-21T17:49:39.331Z,41.40
2019-04-21T17:52:17.803Z,41.50
2019-04-21T17:54:50.731Z,41.90
2019-04-21T17:57:37.961Z,41.90
2019-04-21T18:00:14.102Z,42.30
2019-04-21T18:02:42.911Z,42.40
2019-04-21T18:05:15.421Z,43.30
2019-04-21T18:07:43.587Z,43.80
2019-04-21T18:10:14.333Z,43.50
2019-04-21T18:12:42.564Z,44.50
2019-04-21T18:15:16.927Z,44.80
2019-04-21T18:17:28.759Z,45.00
2019-04-21T18:19:59.592Z,45.50
2019-04-21T18:22:43.564Z,46.10
2019-04-21T18:25:29.524Z,46.60
2019-04-21T18:27:44.842Z,46.60
2019-04-21T18:30:31.894Z,47.10
2019-04-21T18:33:04.715Z,48.00
2019-04-21T18:35:51.709Z,48.80
2019-04-21T18:38:29.581Z,49.40
2019-04-21T18:40:56.454Z,49.70
2019-04-21T18:46:38.644Z,50.40
2019-04-21T18:49:01.478Z,50.70
2019-04-21T18:51:57.156Z,51.50
2019-04-21T18:54:43.522Z,52.00
2019-04-21T18:57:04.453Z,52.40
2019-04-21T18:59:33.698Z,52.50
2019-04-21T19:02:04.278Z,52.70
2019-04-21T19:04:32.563Z,53.30
2019-04-21T19:07:14.217Z,53.60
2019-04-21T19:10:08.157Z,54.10
2019-04-21T19:12:34.683Z,54.60
2019-04-21T19:14:50.986Z,54.60
2019-04-21T19:20:02.381Z,55.00
2019-04-21T19:22:30.865Z,54.90
2019-04-21T19:25:00.889Z,54.80
2019-04-21T19:27:26.273Z,55.00
2019-04-21T19:30:05.757Z,55.00
2019-04-21T19:32:28.932Z,55.70
2019-04-21T19:34:47.383Z,56.40
2019-04-21T19:37:20.921Z,57.50
2019-04-21T19:39:58.894Z,58.10
2019-04-21T19:42:30.432Z,58.40
2019-04-21T19:45:06.100Z,58.80
2019-04-21T19:47:45.009Z,59.10
2019-04-21T19:50:12.187Z,59.20
2019-04-21T19:52:36.774Z,60.30
2019-04-21T19:54:58.650Z,60.90
2019-04-21T19:57:29.290Z,61.60
2019-04-21T20:00:03.785Z,62.20
2019-04-21T20:02:32.232Z,63.20
2019-04-21T20:05:06.983Z,64.10
2019-04-21T20:07:48.242Z,64.60
2019-04-21T20:10:26.857Z,65.00
2019-04-21T20:12:56.922Z,66.70
2019-04-21T20:15:37.459Z,66.60
2019-04-21T20:17:54.346Z,67.10
2019-04-21T20:20:13.276Z,67.80
2019-04-21T20:22:45.837Z,68.10
2019-04-21T20:25:19.172Z,68.40
2019-04-21T20:27:58.197Z,69.30
2019-04-21T20:30:40.461Z,69.20
2019-04-21T20:33:31.845Z,69.90
2019-04-21T20:35:48.575Z,71.80
2019-04-21T20:38:09.350Z,71.70
2019-04-21T20:40:31.814Z,72.10
2019-04-21T20:43:11.509Z,72.90
2019-04-21T20:45:49.286Z,73.70
2019-04-21T20:48:05.815Z,74.40
2019-04-21T20:50:37.920Z,75.00
2019-04-21T20:53:17.581Z,75.30
2019-04-21T20:55:48.543Z,75.40
2019-04-21T20:58:13.381Z,75.70
2019-04-21T21:00:55.726Z,75.80
2019-04-21T21:03:24.439Z,76.40
2019-04-21T21:05:49.746Z,77.00
2019-04-21T21:10:53.750Z,77.20
2019-04-21T21:13:44.941Z,76.90
2019-04-21T21:18:48.491Z,77.20
2019-04-21T21:21:00.363Z,77.60
2019-04-21T21:23:33.508Z,76.70
2019-04-21T21:26:01.872Z,77.20
2019-04-21T21:28:32.828Z,77.20
2019-04-21T21:31:12.134Z,77.50
2019-04-21T21:33:52.573Z,77.40
2019-04-21T21:36:10.735Z,77.00
2019-04-21T21:38:42.894Z,77.40
2019-04-21T21:41:05.192Z,77.80
2019-04-21T21:43:26.909Z,78.20
2019-04-21T21:45:59.521Z,78.60
2019-04-21T21:48:40.640Z,78.60
2019-04-21T21:51:05.954Z,78.20
2019-04-21T21:53:32.618Z,77.20
2019-04-21T21:56:02.764Z,77.10
2019-04-21T21:58:38.157Z,76.50
2019-04-21T22:01:08.203Z,76.00
2019-04-21T22:03:42.767Z,75.80
2019-04-21T22:06:13.624Z,75.70
2019-04-21T22:08:40.602Z,75.70
2019-04-21T22:11:11.151Z,75.80
2019-04-21T22:13:49.023Z,76.00
2019-04-21T22:16:14.498Z,76.00
2019-04-21T22:19:04.724Z,76.40
2019-04-21T22:21:34.223Z,77.50
2019-04-21T22:23:54.863Z,77.90
2019-04-21T22:26:16.388Z,79.00
2019-04-21T22:28:45.723Z,79.40
2019-04-21T22:31:19.581Z,79.30
2019-04-21T22:33:50.229Z,79.50
2019-04-21T22:36:31.316Z,79.00
2019-04-21T22:39:08.981Z,78.80
2019-04-21T22:41:26.566Z,78.50
2019-04-21T22:43:53.548Z,78.50
2019-04-21T22:46:22.334Z,78.80
2019-04-21T22:48:56.525Z,79.20
2019-04-21T22:51:30.567Z,79.70
2019-04-21T22:53:57.589Z,80.20
2019-04-21T22:56:32.670Z,80.60
2019-04-21T22:58:59.017Z,81.60
2019-04-21T23:01:34.996Z,83.90
2019-04-21T23:04:02.934Z,86.30
2019-04-21T23:06:34.364Z,87.60
2019-04-21T23:09:02.915Z,89.40
2019-04-21T23:11:41.719Z,89.90
2019-04-21T23:14:10.285Z,90.40
2019-04-21T23:16:41.796Z,90.40
2019-04-21T23:19:23.689Z,90.90
2019-04-21T23:21:58.237Z,90.60
2019-04-21T23:24:38.544Z,90.90
2019-04-21T23:26:56.173Z,90.80
2019-04-21T23:29:43.705Z,90.80
2019-04-21T23:32:00.087Z,90.90
2019-04-21T23:34:20.848Z,90.80
2019-04-21T23:36:54.792Z,89.70
2019-04-21T23:39:23.723Z,89.60
2019-04-21T23:41:51.581Z,89.70
2019-04-21T23:44:22.189Z,89.40
2019-04-21T23:46:57.528Z,89.50
2019-04-21T23:49:38.345Z,88.80
2019-04-21T23:52:00.803Z,89.40
2019-04-21T23:54:27.289Z,88.50
2019-04-21T23:56:57.991Z,88.60
2019-04-21T23:59:32.857Z,88.50
